sensor_id;sensor_type;location;lat;lon;timestamp;temperature;humidity
7248;DHT22;3665;51.034;13.642;2023-11-18T02:49:32;2.90;99.90
7248;DHT22;3665;51.034;13.642;2023-11-18T03:00:14;2.90;99.90
7248;DHT22;3665;51.034;13.642;2023-11-18T03:53:31;2.60;84.10
7248;DHT22;3665;51.034;13.642;2023-11-18T06:58:20;3.00;1.00
7248;DHT22;3665;51.034;13.642;2023-11-18T07:03:36;3.00;99.90
7248;DHT22;3665;51.034;13.642;2023-11-18T07:08:28;2.90;1.00
7248;DHT22;3665;51.034;13.642;2023-11-18T07:13:37;2.90;99.90
7248;DHT22;3665;51.034;13.642;2023-11-18T07:24:43;3.00;99.90
7248;DHT22;3665;51.034;13.642;2023-11-18T07:29:45;3.00;70.90
7248;DHT22;3665;51.034;13.642;2023-11-18T08:02:17;3.60;1.00
7248;DHT22;3665;51.034;13.642;2023-11-18T08:07:41;3.80;1.00
7248;DHT22;3665;51.034;13.642;2023-11-18T08:12:42;3.80;1.00
7248;DHT22;3665;51.034;13.642;2023-11-18T08:23:23;3.60;99.90
7248;DHT22;3665;51.034;13.642;2023-11-18T08:28:25;3.60;1.00
7248;DHT22;3665;51.034;13.642;2023-11-18T08:33:16;3.70;1.00
7248;DHT22;3665;51.034;13.642;2023-11-18T08:38:01;3.90;99.90
7248;DHT22;3665;51.034;13.642;2023-11-18T08:43:19;4.10;99.90
7248;DHT22;3665;51.034;13.642;2023-11-18T08:53:52;4.50;99.90
7248;DHT22;3665;51.034;13.642;2023-11-18T08:58:48;4.50;96.10
7248;DHT22;3665;51.034;13.642;2023-11-18T09:03:40;4.40;99.90
7248;DHT22;3665;51.034;13.642;2023-11-18T09:08:42;4.40;80.00
7248;DHT22;3665;51.034;13.642;2023-11-18T09:14:04;4.30;94.40
7248;DHT22;3665;51.034;13.642;2023-11-18T09:18:57;4.50;32.30
7248;DHT22;3665;51.034;13.642;2023-11-18T09:23:53;4.50;56.70
7248;DHT22;3665;51.034;13.642;2023-11-18T09:28:42;4.80;39.50
7248;DHT22;3665;51.034;13.642;2023-11-18T09:33:31;5.00;10.30
7248;DHT22;3665;51.034;13.642;2023-11-18T09:38:18;5.20;8.40
7248;DHT22;3665;51.034;13.642;2023-11-18T09:43:05;5.40;1.00
7248;DHT22;3665;51.034;13.642;2023-11-18T09:47:53;5.40;1.00
7248;DHT22;3665;51.034;13.642;2023-11-18T09:52:42;5.50;1.00
7248;DHT22;3665;51.034;13.642;2023-11-18T09:57:39;5.70;1.00
7248;DHT22;3665;51.034;13.642;2023-11-18T10:02:50;5.70;1.00
7248;DHT22;3665;51.034;13.642;2023-11-18T10:07:38;5.80;1.00
7248;DHT22;3665;51.034;13.642;2023-11-18T10:12:25;5.90;1.00
7248;DHT22;3665;51.034;13.642;2023-11-18T10:17:16;6.00;1.00
7248;DHT22;3665;51.034;13.642;2023-11-18T10:22:21;5.80;1.00
7248;DHT22;3665;51.034;13.642;2023-11-18T10:27:10;5.70;1.00
7248;DHT22;3665;51.034;13.642;2023-11-18T10:32:10;5.80;1.00
7248;DHT22;3665;51.034;13.642;2023-11-18T10:37:05;6.10;1.00
7248;DHT22;3665;51.034;13.642;2023-11-18T10:41:59;6.20;1.00
7248;DHT22;3665;51.034;13.642;2023-11-18T10:47:06;6.20;1.00
7248;DHT22;3665;51.034;13.642;2023-11-18T10:51:55;6.30;1.00
7248;DHT22;3665;51.034;13.642;2023-11-18T10:56:49;6.00;1.00
7248;DHT22;3665;51.034;13.642;2023-11-18T11:01:46;6.00;1.00
7248;DHT22;3665;51.034;13.642;2023-11-18T11:06:50;6.10;1.00
7248;DHT22;3665;51.034;13.642;2023-11-18T11:11:41;6.20;1.00
7248;DHT22;3665;51.034;13.642;2023-11-18T11:16:42;6.10;1.00
7248;DHT22;3665;51.034;13.642;2023-11-18T11:21:31;6.00;1.00
7248;DHT22;3665;51.034;13.642;2023-11-18T11:26:25;5.90;1.00
7248;DHT22;3665;51.034;13.642;2023-11-18T11:31:38;6.10;1.00
7248;DHT22;3665;51.034;13.642;2023-11-18T11:36:30;6.20;1.00
7248;DHT22;3665;51.034;13.642;2023-11-18T11:41:31;6.10;1.00
7248;DHT22;3665;51.034;13.642;2023-11-18T11:46:17;6.10;1.00
7248;DHT22;3665;51.034;13.642;2023-11-18T11:51:13;6.20;1.00
7248;DHT22;3665;51.034;13.642;2023-11-18T11:56:49;6.30;1.00
7248;DHT22;3665;51.034;13.642;2023-11-18T12:01:47;6.30;1.00
7248;DHT22;3665;51.034;13.642;2023-11-18T12:07:04;6.30;1.00
7248;DHT22;3665;51.034;13.642;2023-11-18T12:12:17;6.20;1.00
7248;DHT22;3665;51.034;13.642;2023-11-18T12:17:06;6.10;1.00
7248;DHT22;3665;51.034;13.642;2023-11-18T12:22:00;6.50;1.00
7248;DHT22;3665;51.034;13.642;2023-11-18T12:26:50;6.60;1.00
7248;DHT22;3665;51.034;13.642;2023-11-18T12:37:24;5.90;1.00
7248;DHT22;3665;51.034;13.642;2023-11-18T12:47:38;5.20;1.00
7248;DHT22;3665;51.034;13.642;2023-11-18T12:52:24;5.40;1.00
7248;DHT22;3665;51.034;13.642;2023-11-18T12:57:12;5.50;1.00
7248;DHT22;3665;51.034;13.642;2023-11-18T13:02:01;5.50;1.00
7248;DHT22;3665;51.034;13.642;2023-11-18T13:06:50;5.50;1.00
7248;DHT22;3665;51.034;13.642;2023-11-18T13:11:42;5.60;1.00
7248;DHT22;3665;51.034;13.642;2023-11-18T13:27:52;5.60;1.00
7248;DHT22;3665;51.034;13.642;2023-11-18T14:55:04;3.70;1.00
7248;DHT22;3665;51.034;13.642;2023-11-18T15:05:16;3.30;1.00
7248;DHT22;3665;51.034;13.642;2023-11-18T15:10:25;3.00;1.00
7248;DHT22;3665;51.034;13.642;2023-11-18T15:15:21;2.80;1.00
7248;DHT22;3665;51.034;13.642;2023-11-18T15:20:25;2.60;1.00
7248;DHT22;3665;51.034;13.642;2023-11-18T15:25:13;2.40;1.00
7248;DHT22;3665;51.034;13.642;2023-11-18T15:30:03;2.30;1.00
7248;DHT22;3665;51.034;13.642;2023-11-18T15:35:12;2.20;1.00
7248;DHT22;3665;51.034;13.642;2023-11-18T15:40:27;2.00;1.00
7248;DHT22;3665;51.034;13.642;2023-11-18T16:07:39;1.60;1.00
7248;DHT22;3665;51.034;13.642;2023-11-18T17:13:37;1.70;82.20
7248;DHT22;3665;51.034;13.642;2023-11-18T17:25:48;2.00;24.20
7248;DHT22;3665;51.034;13.642;2023-11-18T17:52:43;2.20;25.10
7248;DHT22;3665;51.034;13.642;2023-11-18T17:58:19;2.20;27.30
7248;DHT22;3665;51.034;13.642;2023-11-18T18:10:51;2.40;1.00
7248;DHT22;3665;51.034;13.642;2023-11-18T18:16:11;2.40;1.00
7248;DHT22;3665;51.034;13.642;2023-11-18T18:22:19;2.40;1.00
7248;DHT22;3665;51.034;13.642;2023-11-18T18:27:26;2.30;1.00
7248;DHT22;3665;51.034;13.642;2023-11-18T18:32:45;2.30;1.00
7248;DHT22;3665;51.034;13.642;2023-11-18T22:56:42;3.80;10.80
7248;DHT22;3665;51.034;13.642;2023-11-18T23:01:27;3.70;24.00
7248;DHT22;3665;51.034;13.642;2023-11-18T23:06:16;3.60;51.20
7248;DHT22;3665;51.034;13.642;2023-11-18T23:11:07;3.70;99.90
7248;DHT22;3665;51.034;13.642;2023-11-18T23:16:09;3.70;99.90
7248;DHT22;3665;51.034;13.642;2023-11-18T23:21:09;3.80;99.90
7248;DHT22;3665;51.034;13.642;2023-11-18T23:25:57;3.80;99.90
7248;DHT22;3665;51.034;13.642;2023-11-18T23:31:04;3.70;99.90
7248;DHT22;3665;51.034;13.642;2023-11-18T23:36:07;3.80;99.90
7248;DHT22;3665;51.034;13.642;2023-11-18T23:40:55;3.90;99.90
7248;DHT22;3665;51.034;13.642;2023-11-18T23:45:42;3.90;99.90
7248;DHT22;3665;51.034;13.642;2023-11-18T23:50:32;3.80;99.90
7248;DHT22;3665;51.034;13.642;2023-11-18T23:55:23;3.80;99.90
